Time;durP1;ratioP1;P1;durP2;ratioP2;P2;SDS_P1;SDS_P2;PMS_P1;PMS_P2;Temp;Humidity;BMP_temperature;BMP_pressure;BME280_temperature;BME280_humidity;BME280_pressure;Samples;Min_cycle;Max_cycle;Signal;HPM_P1;HPM_P2
2021/12/08 00:00:32;;;;;;;;;0.00;0.00;;;;;6.03;73.42;98786.06;5016352;28;45655;-77
2021/12/08 00:03:00;;;;;;;;;4.00;1.00;;;;;5.98;73.64;98786.22;5017769;28;45361;-77
2021/12/08 00:05:27;;;;;;;;;0.00;0.00;;;;;5.95;73.82;98791.50;5016181;28;45467;-77
2021/12/08 00:07:53;;;;;;;;;0.00;0.00;;;;;5.94;73.86;98783.69;5016157;28;46759;-77
2021/12/08 00:13:03;;;;;;;;;3.00;0.00;;;;;5.88;73.91;98800.44;5016657;28;45576;-77
2021/12/08 00:15:33;;;;;;;;;0.00;0.00;;;;;5.82;73.63;98777.88;5013405;28;45528;-77
2021/12/08 00:17:59;;;;;;;;;0.00;0.00;;;;;5.76;74.39;98772.81;5015624;28;46188;-75
2021/12/08 00:20:28;;;;;;;;;0.00;0.00;;;;;5.81;74.34;98786.66;5016020;28;45393;-76
2021/12/08 00:22:54;;;;;;;;;0.50;0.00;;;;;5.76;73.84;98778.06;5016438;28;45328;-76
2021/12/08 00:25:19;;;;;;;;;3.00;1.00;;;;;5.74;74.53;98774.63;5015866;28;45545;-77
2021/12/08 00:27:45;;;;;;;;;3.25;0.75;;;;;5.70;74.40;98773.84;4997718;28;46249;-77
2021/12/08 00:30:10;;;;;;;;;1.00;1.00;;;;;5.67;74.52;98752.13;5014900;28;45340;-76
2021/12/08 00:32:36;;;;;;;;;0.50;0.50;;;;;5.61;74.17;98757.53;5000343;28;45556;-77
2021/12/08 00:35:05;;;;;;;;;1.00;1.00;;;;;5.64;75.15;98774.03;5002418;28;45494;-77
2021/12/08 00:37:30;;;;;;;;;0.00;0.00;;;;;5.60;74.16;98769.78;5015749;28;45371;-77
2021/12/08 00:39:56;;;;;;;;;2.25;0.50;;;;;5.57;74.39;98755.91;5034793;28;45543;-77
2021/12/08 00:42:22;;;;;;;;;0.00;0.00;;;;;5.58;73.86;98761.09;5036304;28;45527;-77
2021/12/08 00:44:47;;;;;;;;;0.25;0.25;;;;;5.57;74.12;98771.63;5037105;28;45475;-77
2021/12/08 00:47:13;;;;;;;;;3.00;0.00;;;;;5.54;73.59;98777.81;5036556;28;46164;-76
2021/12/08 00:49:39;;;;;;;;;0.50;0.00;;;;;5.51;73.67;98786.63;5035722;28;45499;-76
2021/12/08 00:52:06;;;;;;;;;0.00;0.00;;;;;5.49;73.43;98785.78;5035799;28;45373;-76
2021/12/08 00:54:31;;;;;;;;;0.00;0.00;;;;;5.45;73.57;98793.78;5000878;28;45356;-77
2021/12/08 00:56:57;;;;;;;;;0.00;0.00;;;;;5.45;73.50;98802.53;5034436;28;46213;-76
2021/12/08 00:59:23;;;;;;;;;1.00;0.00;;;;;5.42;73.35;98799.09;5035117;28;45356;-77
2021/12/08 01:01:48;;;;;;;;;0.75;0.00;;;;;5.40;73.17;98804.38;5034819;28;45426;-77
2021/12/08 01:04:15;;;;;;;;;0.00;0.00;;;;;5.36;73.51;98802.78;5035443;28;45479;-77
2021/12/08 01:06:41;;;;;;;;;0.00;0.00;;;;;5.34;73.39;98807.19;5035114;28;46420;-78
2021/12/08 01:09:07;;;;;;;;;0.00;0.00;;;;;5.35;73.61;98803.66;5035114;28;45542;-77
2021/12/08 01:11:32;;;;;;;;;0.00;0.00;;;;;5.29;73.54;98795.97;5017650;28;45334;-77
2021/12/08 01:13:58;;;;;;;;;0.00;0.00;;;;;5.26;72.86;98803.91;5034581;28;45424;-76
2021/12/08 01:16:24;;;;;;;;;0.25;0.00;;;;;5.27;73.02;98809.13;5034815;28;46615;-75
2021/12/08 01:18:49;;;;;;;;;0.00;0.00;;;;;5.26;72.59;98814.38;5036433;28;45392;-76
2021/12/08 01:21:17;;;;;;;;;0.00;0.00;;;;;5.24;72.90;98816.16;5035318;28;45533;-76
2021/12/08 01:23:43;;;;;;;;;0.00;0.00;;;;;5.23;72.43;98806.63;5034114;28;45834;-76
2021/12/08 01:26:09;;;;;;;;;2.00;1.00;;;;;5.22;72.74;98784.78;5034685;28;46334;-77
2021/12/08 01:28:35;;;;;;;;;0.00;0.00;;;;;5.21;73.08;98790.06;5035210;28;45486;-77
2021/12/08 01:31:01;;;;;;;;;0.00;0.00;;;;;5.16;73.27;98785.81;5032939;28;45475;-77
2021/12/08 01:33:33;;;;;;;;;0.00;0.00;;;;;5.14;72.83;98782.38;5015190;28;45448;-77
2021/12/08 01:35:59;;;;;;;;;3.00;1.00;;;;;5.15;72.81;98784.09;5014956;28;45429;-75
2021/12/08 01:38:25;;;;;;;;;0.00;0.00;;;;;5.12;72.61;98781.56;5024499;28;45532;-76
2021/12/08 01:40:51;;;;;;;;;0.00;0.00;;;;;5.05;73.11;98785.22;5031120;28;45539;-76
2021/12/08 01:43:27;;;;;;;;;0.50;0.00;;;;;5.10;72.82;98796.47;5034483;28;45411;-76
2021/12/08 01:46:03;;;;;;;;;0.00;0.00;;;;;5.08;73.09;98794.78;5034703;28;45432;-77
2021/12/08 01:48:35;;;;;;;;;0.00;0.00;;;;;5.04;73.29;98790.50;5036953;28;45518;-77
2021/12/08 01:51:05;;;;;;;;;0.50;0.00;;;;;5.03;73.21;98801.91;5035526;28;45427;-77
2021/12/08 01:53:31;;;;;;;;;0.00;0.00;;;;;5.00;74.03;98823.78;5017445;28;45360;-76
2021/12/08 01:55:57;;;;;;;;;1.00;0.00;;;;;5.00;73.92;98834.25;5034712;28;46561;-76
2021/12/08 01:58:25;;;;;;;;;0.00;0.00;;;;;4.96;73.84;98820.38;5035682;28;45432;-78
2021/12/08 02:00:58;;;;;;;;;0.25;0.00;;;;;4.98;73.86;98836.91;5033648;28;45506;-77
2021/12/08 02:03:25;;;;;;;;;0.00;0.00;;;;;4.97;74.07;98834.31;5034569;28;45631;-77
2021/12/08 02:05:51;;;;;;;;;0.00;0.00;;;;;4.92;74.18;98831.81;5034570;28;45530;-77
2021/12/08 02:08:18;;;;;;;;;0.00;0.00;;;;;4.90;74.30;98823.13;5034483;28;45395;-77
2021/12/08 02:10:44;;;;;;;;;0.75;0.75;;;;;4.86;74.37;98825.84;5034141;28;45331;-77
2021/12/08 02:13:10;;;;;;;;;0.00;0.00;;;;;4.87;74.46;98838.91;5015029;28;45485;-75
2021/12/08 02:15:38;;;;;;;;;0.25;0.00;;;;;4.85;74.94;98837.25;5033654;28;45435;-77
2021/12/08 02:18:06;;;;;;;;;0.00;0.00;;;;;4.86;74.46;98865.13;5017836;28;45536;-77
2021/12/08 02:20:32;;;;;;;;;1.00;1.00;;;;;4.85;75.25;98880.00;5036079;28;45478;-76
2021/12/08 02:22:57;;;;;;;;;2.25;0.75;;;;;4.82;74.91;98866.13;5035749;28;45415;-77
2021/12/08 02:25:25;;;;;;;;;0.75;0.75;;;;;4.81;75.50;98883.56;5033338;28;45349;-77
2021/12/08 02:27:53;;;;;;;;;0.00;0.00;;;;;4.74;75.45;98864.53;5033002;28;45432;-76
2021/12/08 02:46:52;;;;;;;;;0.50;0.00;;;;;4.60;75.64;98874.44;5036907;28;45550;-77
2021/12/08 02:49:20;;;;;;;;;0.00;0.00;;;;;4.64;75.67;98886.56;5038938;28;45504;-76
2021/12/08 02:51:46;;;;;;;;;0.00;0.00;;;;;4.62;75.54;98876.16;5039412;28;45530;-76
2021/12/08 02:54:11;;;;;;;;;0.00;0.00;;;;;4.61;75.98;98877.03;5037533;28;45510;-77
2021/12/08 02:56:37;;;;;;;;;0.00;0.00;;;;;4.61;74.80;98890.13;5036872;28;46981;-77
2021/12/08 02:59:04;;;;;;;;;0.75;0.00;;;;;4.56;75.09;98885.91;5018973;28;45864;-75
2021/12/08 03:01:29;;;;;;;;;0.00;0.00;;;;;4.59;75.12;98896.31;5033899;28;45479;-77
2021/12/08 03:03:56;;;;;;;;;0.25;0.25;;;;;4.57;75.10;98883.25;5037085;28;45570;-77
2021/12/08 03:06:21;;;;;;;;;0.00;0.00;;;;;4.56;75.17;98898.97;5037863;28;45418;-77
2021/12/08 03:08:47;;;;;;;;;2.00;1.00;;;;;4.55;74.94;98887.63;5036544;28;45436;-76
2021/12/08 03:11:13;;;;;;;;;0.00;0.00;;;;;4.55;75.01;98869.31;5037358;28;45389;-77
2021/12/08 03:13:44;;;;;;;;;0.00;0.00;;;;;4.54;74.98;98864.13;5036882;28;45445;-77
2021/12/08 03:16:12;;;;;;;;;5.25;0.00;;;;;4.53;74.65;98859.81;5036864;28;45397;-76
2021/12/08 03:18:40;;;;;;;;;0.25;0.00;;;;;4.51;75.07;98859.84;5031806;28;45429;-76
2021/12/08 03:21:09;;;;;;;;;0.00;0.00;;;;;4.49;74.72;98859.00;5018953;28;45389;-76
2021/12/08 03:26:29;;;;;;;;;1.50;0.00;;;;;4.49;75.14;98860.75;4993273;28;45591;-78
2021/12/08 03:29:18;;;;;;;;;0.00;0.00;;;;;4.45;74.93;98842.50;4996029;28;45601;-77
2021/12/08 03:31:44;;;;;;;;;0.00;0.00;;;;;4.42;75.35;98826.88;5003245;28;45507;-77
2021/12/08 03:34:09;;;;;;;;;0.00;0.00;;;;;4.41;74.57;98827.78;4995578;28;45613;-77
2021/12/08 03:36:35;;;;;;;;;0.00;0.00;;;;;4.42;74.86;98816.41;4994768;28;45664;-78
2021/12/08 03:39:02;;;;;;;;;0.00;0.00;;;;;4.41;75.07;98824.31;5011880;28;45419;-77
2021/12/08 03:41:32;;;;;;;;;0.75;0.00;;;;;4.41;75.12;98824.31;5014552;28;45486;-77
2021/12/08 03:44:12;;;;;;;;;0.00;0.00;;;;;4.38;75.43;98838.31;5089177;27;45396;-76
2021/12/08 03:46:41;;;;;;;;;3.00;1.00;;;;;4.43;74.91;98835.59;5070757;27;45474;-76
2021/12/08 03:49:10;;;;;;;;;0.00;0.00;;;;;4.41;75.17;98819.06;5070707;27;45382;-76
2021/12/08 03:51:37;;;;;;;;;2.25;0.00;;;;;4.39;75.22;98821.72;5071272;27;45395;-77
2021/12/08 03:54:02;;;;;;;;;0.00;0.00;;;;;4.38;75.52;98825.22;5072406;27;45484;-75
2021/12/08 03:56:28;;;;;;;;;0.00;0.00;;;;;4.32;75.33;98824.50;5071899;27;45395;-76
2021/12/08 03:58:53;;;;;;;;;0.00;0.00;;;;;4.30;75.61;98819.31;5071031;27;45392;-76
2021/12/08 04:01:18;;;;;;;;;0.50;0.00;;;;;4.29;75.43;98833.28;5070456;27;45359;-76
2021/12/08 04:03:49;;;;;;;;;1.00;0.00;;;;;4.29;75.93;98835.91;5071173;27;45502;-76
2021/12/08 04:06:30;;;;;;;;;0.00;0.00;;;;;4.26;76.35;98830.72;5070170;27;45583;-76
2021/12/08 04:08:56;;;;;;;;;3.00;1.00;;;;;4.25;75.55;98829.00;5070603;27;45398;-78
2021/12/08 04:11:25;;;;;;;;;0.00;0.00;;;;;4.20;76.11;98828.25;5069749;27;45494;-78
2021/12/08 04:14:01;;;;;;;;;0.00;0.00;;;;;4.17;75.75;98830.94;5070348;28;46637;-77
2021/12/08 04:16:34;;;;;;;;;0.00;0.00;;;;;4.20;76.12;98841.31;5070662;27;45477;-75
2021/12/08 04:19:01;;;;;;;;;0.00;0.00;;;;;4.19;76.23;98844.81;5070863;27;45525;-75
2021/12/08 04:21:28;;;;;;;;;1.00;0.00;;;;;4.16;76.24;98834.44;5070765;27;45465;-77
2021/12/08 04:23:54;;;;;;;;;1.00;1.00;;;;;4.13;76.22;98839.72;5069168;28;45541;-75
2021/12/08 04:26:31;;;;;;;;;0.00;0.00;;;;;4.13;76.48;98840.63;5071528;28;45413;-75
2021/12/08 04:28:57;;;;;;;;;0.75;0.00;;;;;4.08;76.61;98838.09;5070812;27;45353;-77
2021/12/08 04:31:33;;;;;;;;;0.00;0.00;;;;;4.09;76.85;98844.19;5070142;27;45407;-76
2021/12/08 04:34:03;;;;;;;;;0.00;0.00;;;;;4.06;76.43;98855.56;5070401;28;45452;-76
2021/12/08 04:36:42;;;;;;;;;0.50;0.00;;;;;4.05;76.72;98843.41;5069980;27;45530;-76
2021/12/08 04:39:18;;;;;;;;;0.75;0.00;;;;;4.00;76.88;98840.00;5070972;27;45413;-77
2021/12/08 04:41:49;;;;;;;;;0.00;0.00;;;;;3.98;77.08;98831.34;5071041;27;45554;-76
2021/12/08 04:52:30;;;;;;;;;0.00;0.00;;;;;3.98;77.44;98860.09;5049965;28;45469;-78
2021/12/08 05:08:40;;;;;;;;;3.00;0.00;;;;;3.86;77.15;98894.31;5056503;28;45397;-75
2021/12/08 05:11:15;;;;;;;;;2.25;0.00;;;;;3.87;77.96;98891.69;5035974;28;45451;-76
2021/12/08 05:13:44;;;;;;;;;0.00;0.00;;;;;3.87;77.34;98883.84;5036802;28;45351;-76
2021/12/08 05:16:11;;;;;;;;;0.00;0.00;;;;;3.85;78.10;98897.81;5035864;28;46196;-77
2021/12/08 05:18:42;;;;;;;;;0.00;0.00;;;;;3.83;77.87;98894.38;5034893;28;45724;-77
2021/12/08 05:21:23;;;;;;;;;5.00;0.00;;;;;3.83;78.16;98891.78;5039470;28;45371;-76
2021/12/08 05:24:04;;;;;;;;;0.75;0.00;;;;;3.80;77.86;98890.06;5056307;28;45547;-77
2021/12/08 05:26:38;;;;;;;;;0.00;0.00;;;;;3.78;77.79;98902.31;5052864;28;45543;-76
2021/12/08 05:29:15;;;;;;;;;1.00;0.00;;;;;3.76;78.34;98903.22;5055234;28;45501;-77
2021/12/08 05:31:42;;;;;;;;;0.00;0.00;;;;;3.77;77.88;98910.19;5055924;28;45520;-77
2021/12/08 05:34:07;;;;;;;;;0.00;0.00;;;;;3.77;77.91;98915.41;5033320;28;45545;-82
2021/12/08 05:36:34;;;;;;;;;0.00;0.00;;;;;3.73;78.68;98918.09;5045335;28;45439;-81
2021/12/08 05:39:03;;;;;;;;;0.75;0.75;;;;;3.71;78.18;98922.44;5038649;28;45500;-81
2021/12/08 05:41:32;;;;;;;;;0.00;0.00;;;;;3.67;78.34;98923.38;5054057;28;45413;-80
2021/12/08 05:43:58;;;;;;;;;1.75;0.00;;;;;3.64;78.42;98923.44;5036694;27;45490;-82
2021/12/08 05:46:26;;;;;;;;;1.00;1.00;;;;;3.63;78.40;98926.09;5048033;28;46569;-82
2021/12/08 05:48:52;;;;;;;;;0.00;0.00;;;;;3.53;78.47;98901.88;5057353;28;45324;-82
2021/12/08 05:51:23;;;;;;;;;0.75;0.00;;;;;3.64;78.13;98904.31;5064298;27;45587;-83
2021/12/08 05:53:52;;;;;;;;;2.00;0.00;;;;;3.61;78.40;98918.28;5056170;28;45397;-82
2021/12/08 05:56:19;;;;;;;;;0.00;0.00;;;;;3.58;78.89;98930.53;5057368;28;45418;-81
2021/12/08 05:58:46;;;;;;;;;0.00;0.00;;;;;3.60;78.33;98920.91;5064576;28;45357;-83
2021/12/08 06:01:19;;;;;;;;;0.50;0.50;;;;;3.59;78.29;98914.00;5057394;28;45350;-82
2021/12/08 06:03:49;;;;;;;;;1.00;1.00;;;;;3.56;78.67;98912.28;5056735;28;45424;-82
2021/12/08 06:06:15;;;;;;;;;2.50;0.75;;;;;3.52;78.61;98910.59;5055555;28;45500;-83
2021/12/08 06:08:40;;;;;;;;;2.00;1.00;;;;;3.52;78.54;98908.00;5056852;28;45468;-82
2021/12/08 06:11:08;;;;;;;;;0.75;0.75;;;;;3.47;78.70;98891.56;5037838;28;45443;-82
2021/12/08 06:13:34;;;;;;;;;0.00;0.00;;;;;3.48;78.53;98908.97;5036638;28;45556;-83
2021/12/08 06:16:00;;;;;;;;;0.50;0.50;;;;;3.46;78.81;98915.94;5036315;28;45584;-83
2021/12/08 06:18:27;;;;;;;;;0.00;0.00;;;;;3.45;79.19;98906.41;5037021;28;45398;-83
2021/12/08 06:20:57;;;;;;;;;2.50;0.00;;;;;3.44;79.24;98909.88;5035909;28;45489;-82
2021/12/08 06:23:23;;;;;;;;;0.00;0.00;;;;;3.44;78.62;98899.44;5054539;28;45445;-83
2021/12/08 06:25:48;;;;;;;;;0.00;0.00;;;;;3.43;79.20;98895.09;5056777;28;46186;-83
2021/12/08 06:28:14;;;;;;;;;0.00;0.00;;;;;3.42;79.25;98909.06;5059200;28;45453;-83
2021/12/08 06:30:47;;;;;;;;;0.00;0.00;;;;;3.40;79.22;98926.50;5059859;28;45446;-83
2021/12/08 06:33:15;;;;;;;;;0.00;0.00;;;;;3.38;79.40;98929.13;5055802;28;45592;-82
2021/12/08 06:35:49;;;;;;;;;0.00;0.00;;;;;3.34;79.01;98927.44;5054773;28;48389;-82
2021/12/08 06:38:17;;;;;;;;;0.00;0.00;;;;;3.33;79.52;98926.59;5056563;28;45521;-83
2021/12/08 06:40:48;;;;;;;;;0.00;0.00;;;;;3.35;79.05;98937.03;5055350;28;45448;-82
2021/12/08 06:43:18;;;;;;;;;0.00;0.00;;;;;3.31;79.85;98932.72;5054754;28;45339;-83
2021/12/08 06:45:47;;;;;;;;;0.75;0.75;;;;;3.30;78.89;98937.09;5033751;28;45435;-83
2021/12/08 06:48:17;;;;;;;;;1.00;0.75;;;;;3.31;78.99;98941.44;5035313;28;45405;-82
2021/12/08 06:50:53;;;;;;;;;1.00;0.00;;;;;3.31;78.87;98935.34;5035385;28;45454;-83
2021/12/08 06:53:19;;;;;;;;;5.50;0.00;;;;;3.27;79.48;98921.47;5035303;28;45469;-82
2021/12/08 06:55:54;;;;;;;;;0.00;0.00;;;;;3.30;79.01;98923.19;5036710;28;46305;-83
2021/12/08 06:58:25;;;;;;;;;1.00;0.00;;;;;3.30;79.60;98926.66;5057907;28;45386;-82
2021/12/08 07:03:50;;;;;;;;;0.00;0.00;;;;;3.27;79.17;98937.16;5058263;28;45556;-82
2021/12/08 07:06:45;;;;;;;;;3.75;0.00;;;;;3.29;79.40;98926.69;5038078;28;46978;-83
2021/12/08 07:09:24;;;;;;;;;1.00;0.00;;;;;3.29;79.16;98919.69;5047926;28;45457;-82
2021/12/08 07:11:53;;;;;;;;;0.00;0.00;;;;;3.23;79.99;98904.13;5055583;28;45522;-83
2021/12/08 07:14:19;;;;;;;;;0.00;0.00;;;;;3.27;79.75;98916.25;5055852;28;45527;-82
2021/12/08 07:16:49;;;;;;;;;4.00;0.00;;;;;3.25;79.75;98912.81;5069718;28;46466;-82
2021/12/08 07:19:33;;;;;;;;;0.00;0.00;;;;;3.28;79.46;98932.78;5055084;28;45378;-82
2021/12/08 07:22:04;;;;;;;;;1.00;0.00;;;;;3.26;79.47;98926.72;5056336;28;45517;-83
2021/12/08 07:24:37;;;;;;;;;0.00;0.00;;;;;3.28;79.41;98933.66;5055470;28;45498;-83
2021/12/08 07:27:07;;;;;;;;;3.25;0.00;;;;;3.28;79.33;98944.09;5055780;28;45664;-83
2021/12/08 07:29:36;;;;;;;;;3.00;0.00;;;;;3.24;79.72;98942.44;5055846;28;45541;-82
2021/12/08 07:32:08;;;;;;;;;0.00;0.00;;;;;3.31;79.63;98958.84;5046696;28;45429;-82
2021/12/08 07:34:35;;;;;;;;;0.00;0.00;;;;;3.34;79.69;98958.78;5057445;28;45604;-83
2021/12/08 07:37:11;;;;;;;;;1.50;0.00;;;;;3.27;79.44;98944.97;5057986;28;45441;-83
2021/12/08 07:39:46;;;;;;;;;0.00;0.00;;;;;3.29;79.29;98961.47;5047747;28;45465;-77
2021/12/08 07:42:20;;;;;;;;;2.50;0.00;;;;;3.32;79.65;98965.81;5049783;28;45432;-78
2021/12/08 07:44:50;;;;;;;;;1.00;1.00;;;;;3.36;79.41;98989.25;5044261;28;45510;-78
2021/12/08 07:47:16;;;;;;;;;0.00;0.00;;;;;3.38;79.99;98981.38;5040937;28;46232;-77
2021/12/08 07:49:53;;;;;;;;;0.75;0.50;;;;;3.41;80.00;98989.16;5045863;28;45607;-76
2021/12/08 07:52:24;;;;;;;;;0.00;0.00;;;;;3.46;79.03;98997.81;5041722;28;45545;-78
2021/12/08 07:54:50;;;;;;;;;0.75;0.00;;;;;3.51;79.43;98990.75;5059258;27;45517;-78
2021/12/08 07:57:22;;;;;;;;;0.00;0.00;;;;;3.56;78.84;98988.91;5055826;27;45461;-78
2021/12/08 07:59:53;;;;;;;;;0.00;0.00;;;;;3.65;78.76;99000.13;5061871;28;45458;-77
2021/12/08 08:02:19;;;;;;;;;0.00;0.00;;;;;3.70;78.71;98995.66;5053367;28;45970;-77
2021/12/08 08:04:47;;;;;;;;;0.00;0.00;;;;;3.78;78.50;98999.03;5049420;28;45545;-77
2021/12/08 08:07:15;;;;;;;;;4.75;0.00;;;;;3.81;78.42;98979.78;5033596;28;45536;-76
2021/12/08 08:09:45;;;;;;;;;2.25;0.00;;;;;3.88;78.16;98986.63;5046067;28;45543;-76
2021/12/08 08:12:20;;;;;;;;;1.00;0.00;;;;;3.86;77.54;98981.44;5071265;27;45452;-77
2021/12/08 08:14:52;;;;;;;;;0.50;0.00;;;;;3.95;77.72;98976.91;5045429;27;45367;-77
2021/12/08 08:17:25;;;;;;;;;1.00;1.00;;;;;3.99;77.21;98971.59;5052742;28;46384;-77
2021/12/08 08:19:50;;;;;;;;;2.50;2.50;;;;;3.94;77.71;98964.75;5051500;28;45864;-77
2021/12/08 08:22:22;;;;;;;;;1.00;0.00;;;;;4.01;77.54;98972.47;5039426;28;45509;-76
2021/12/08 08:24:49;;;;;;;;;0.00;0.00;;;;;4.05;77.23;98983.72;5049635;28;45527;-77
2021/12/08 08:27:15;;;;;;;;;0.00;0.00;;;;;4.14;77.25;98978.31;5068827;28;46197;-77
2021/12/08 08:29:42;;;;;;;;;0.00;0.00;;;;;4.19;76.77;98980.81;5067693;27;45399;-75
2021/12/08 08:32:19;;;;;;;;;0.00;0.00;;;;;4.21;76.57;98976.44;5046940;28;45427;-76
2021/12/08 08:34:48;;;;;;;;;0.00;0.00;;;;;4.26;76.20;98985.91;5055437;28;45341;-77
2021/12/08 08:37:15;;;;;;;;;1.00;1.00;;;;;4.32;76.11;98994.53;5058233;28;45587;-75
2021/12/08 08:39:48;;;;;;;;;1.00;0.00;;;;;4.37;76.13;98993.56;5057527;28;45399;-76
2021/12/08 08:42:22;;;;;;;;;0.00;0.00;;;;;4.42;75.91;99004.78;5056797;28;45342;-77
2021/12/08 08:44:54;;;;;;;;;0.00;0.00;;;;;4.42;75.38;98983.88;5055618;28;45521;-76
2021/12/08 08:47:25;;;;;;;;;0.00;0.00;;;;;4.52;75.72;98995.00;5055048;28;47382;-76
2021/12/08 08:49:53;;;;;;;;;1.00;0.00;;;;;4.59;75.13;98988.75;5056535;28;45458;-77
2021/12/08 08:52:35;;;;;;;;;3.75;1.00;;;;;4.68;74.79;98987.69;5056993;28;45334;-78
2021/12/08 08:55:07;;;;;;;;;0.00;0.00;;;;;5.22;73.99;98978.63;5071827;27;45467;-78
2021/12/08 08:57:37;;;;;;;;;0.25;0.25;;;;;6.04;71.10;98972.25;5056647;28;46611;-77
2021/12/08 09:00:19;;;;;;;;;1.00;0.00;;;;;6.86;68.33;98967.31;5056707;27;45580;-76
2021/12/08 09:02:48;;;;;;;;;1.00;0.00;;;;;7.15;66.33;98978.69;5057214;28;45513;-77
2021/12/08 09:05:19;;;;;;;;;4.00;1.00;;;;;7.39;65.21;98979.66;5041072;28;45504;-78
2021/12/08 09:07:51;;;;;;;;;0.75;0.75;;;;;7.88;64.79;98978.94;5036621;28;46382;-76
2021/12/08 09:10:35;;;;;;;;;0.75;0.00;;;;;8.35;61.77;98987.81;5036227;28;45476;-76
2021/12/08 09:13:11;;;;;;;;;0.50;0.00;;;;;8.76;61.44;98989.00;5036130;28;45508;-76
2021/12/08 09:15:42;;;;;;;;;2.50;0.50;;;;;9.11;60.19;98990.31;5035707;28;45445;-78
2021/12/08 09:18:10;;;;;;;;;0.00;0.00;;;;;9.20;58.95;99004.88;5035865;28;45487;-78
2021/12/08 09:20:57;;;;;;;;;0.75;0.00;;;;;9.12;58.64;99006.97;5036181;28;45405;-78
2021/12/08 09:23:42;;;;;;;;;0.50;0.25;;;;;9.01;59.13;99004.75;5036366;28;45547;-77
2021/12/08 09:26:13;;;;;;;;;1.00;0.00;;;;;8.93;58.74;99015.59;5035500;28;45577;-78
2021/12/08 09:28:44;;;;;;;;;0.00;0.00;;;;;8.84;59.40;99014.16;5044390;28;45545;-77
2021/12/08 09:31:23;;;;;;;;;0.00;0.00;;;;;8.64;59.11;99030.69;5053970;28;45404;-78
2021/12/08 09:33:54;;;;;;;;;1.00;1.00;;;;;8.40;60.08;99018.41;5054913;28;45616;-77
2021/12/08 09:36:26;;;;;;;;;0.75;0.75;;;;;8.38;60.26;99021.09;5057382;28;45393;-77
2021/12/08 09:39:05;;;;;;;;;0.00;0.00;;;;;8.26;60.62;99022.38;5057081;28;45451;-78
2021/12/08 09:41:40;;;;;;;;;0.00;0.00;;;;;8.19;60.52;99028.75;5035402;28;45417;-77
2021/12/08 09:44:11;;;;;;;;;0.00;0.00;;;;;8.15;60.65;99038.53;5036910;28;45582;-76
2021/12/08 09:46:43;;;;;;;;;0.00;0.00;;;;;8.51;59.75;99018.88;5034433;28;45426;-77
2021/12/08 09:49:12;;;;;;;;;3.50;1.00;;;;;8.80;58.92;99028.34;5035599;28;47200;-77
2021/12/08 09:51:38;;;;;;;;;0.00;0.00;;;;;9.24;57.68;99017.88;5035860;28;45457;-77
2021/12/08 09:54:05;;;;;;;;;2.25;0.00;;;;;9.57;57.04;99025.38;5054924;28;45507;-76
2021/12/08 09:56:33;;;;;;;;;0.00;0.00;;;;;9.91;56.84;99023.97;5055783;28;45558;-76
2021/12/08 09:59:01;;;;;;;;;0.00;0.00;;;;;10.14;55.59;99009.84;5055924;28;46306;-77
2021/12/08 10:01:27;;;;;;;;;0.00;0.00;;;;;10.03;54.81;99006.78;5055428;28;45462;-77
2021/12/08 10:03:54;;;;;;;;;1.00;0.00;;;;;10.13;55.11;99010.75;5053201;28;45338;-77
2021/12/08 10:06:21;;;;;;;;;2.50;0.00;;;;;10.43;54.11;98991.88;5045291;28;45593;-77
2021/12/08 10:08:49;;;;;;;;;0.00;0.00;;;;;10.92;53.41;98987.94;5043394;28;46294;-78
2021/12/08 10:11:17;;;;;;;;;0.00;0.00;;;;;11.47;52.30;98993.22;5034177;28;45525;-77
2021/12/08 10:13:45;;;;;;;;;0.00;0.00;;;;;11.78;50.91;98981.16;5035794;28;45461;-77
2021/12/08 10:16:12;;;;;;;;;1.00;0.00;;;;;12.13;49.88;98983.84;5034519;28;45490;-76
2021/12/08 10:18:38;;;;;;;;;0.50;0.50;;;;;12.54;49.35;98974.63;5035596;28;48127;-78
2021/12/08 10:21:04;;;;;;;;;0.00;0.00;;;;;12.88;47.34;98968.38;5035253;28;45353;-77
2021/12/08 10:23:32;;;;;;;;;0.00;0.00;;;;;13.33;47.17;98972.09;5035250;28;45433;-77
2021/12/08 10:25:57;;;;;;;;;0.00;0.00;;;;;13.45;46.70;98978.50;5035028;28;45398;-76
2021/12/08 10:28:36;;;;;;;;;1.75;0.75;;;;;13.78;45.69;98990.75;5035410;28;45475;-77
2021/12/08 10:31:14;;;;;;;;;0.00;0.00;;;;;14.12;44.55;98991.44;5050968;28;45387;-77
2021/12/08 10:36:36;;;;;;;;;2.50;0.00;;;;;14.47;43.15;98987.56;5056427;28;45333;-77
2021/12/08 10:39:07;;;;;;;;;0.00;0.00;;;;;14.73;42.95;98981.53;5055551;28;46187;-78
2021/12/08 10:42:10;;;;;;;;;0.00;0.00;;;;;14.73;42.70;98975.38;5037177;28;45418;-76
2021/12/08 10:44:44;;;;;;;;;0.50;0.00;;;;;14.88;42.17;98974.41;5030912;28;45484;-76
2021/12/08 10:47:11;;;;;;;;;0.25;0.25;;;;;15.15;41.57;98975.41;5034603;28;45609;-77
2021/12/08 10:54:57;;;;;;;;;0.00;0.00;;;;;15.64;39.96;98969.56;5052576;28;45482;-77
2021/12/08 10:57:27;;;;;;;;;0.25;0.25;;;;;15.63;39.74;98974.00;5046933;28;45380;-77
2021/12/08 11:00:09;;;;;;;;;1.75;0.75;;;;;15.83;39.33;98971.88;5054736;28;46097;-77
2021/12/08 11:02:40;;;;;;;;;0.00;0.00;;;;;15.90;39.11;98981.16;5054914;28;45484;-77
2021/12/08 11:05:27;;;;;;;;;0.25;0.25;;;;;16.12;38.92;98980.59;5039473;28;45419;-78
2021/12/08 11:08:20;;;;;;;;;0.00;0.00;;;;;16.38;38.12;98980.56;5036010;28;45426;-77
2021/12/08 11:11:04;;;;;;;;;1.00;0.00;;;;;16.55;37.96;98979.44;5034370;28;47062;-76
2021/12/08 11:13:32;;;;;;;;;0.00;0.00;;;;;16.77;37.43;98981.41;5034388;28;45442;-78
2021/12/08 11:16:17;;;;;;;;;0.00;0.00;;;;;16.91;37.51;98984.97;5033817;28;45553;-77
2021/12/08 11:18:52;;;;;;;;;1.00;1.00;;;;;16.92;36.91;98973.34;5054481;28;45469;-78
2021/12/08 11:21:27;;;;;;;;;0.00;0.00;;;;;16.92;37.36;98984.84;5054872;28;46388;-78
2021/12/08 11:23:57;;;;;;;;;0.25;0.25;;;;;17.05;36.87;98985.69;5054265;27;45391;-76
2021/12/08 11:26:33;;;;;;;;;0.00;0.00;;;;;17.10;37.05;98977.34;5045645;28;45561;-78
2021/12/08 11:29:20;;;;;;;;;0.25;0.00;;;;;16.92;36.83;98968.84;5034558;28;45610;-78
2021/12/08 11:31:53;;;;;;;;;1.00;0.00;;;;;16.79;37.14;98963.50;5045085;28;46204;-78
2021/12/08 11:34:34;;;;;;;;;0.00;0.00;;;;;16.77;37.38;98964.56;5054812;28;45583;-78
2021/12/08 11:37:01;;;;;;;;;3.25;2.00;;;;;16.85;37.21;98973.75;5057496;28;45449;-78
2021/12/08 11:39:33;;;;;;;;;0.75;0.00;;;;;16.92;37.12;98968.84;5043900;28;45869;-78
2021/12/08 11:42:06;;;;;;;;;0.00;0.00;;;;;17.13;36.66;98977.13;5049726;28;48417;-77
2021/12/08 11:44:32;;;;;;;;;0.00;0.00;;;;;17.14;36.98;98965.50;5034331;28;45476;-78
2021/12/08 11:47:03;;;;;;;;;1.75;1.00;;;;;17.26;36.64;98981.56;5032336;28;45401;-77
2021/12/08 11:49:29;;;;;;;;;0.00;0.00;;;;;17.21;36.17;98979.22;5033806;28;45556;-78
2021/12/08 11:52:05;;;;;;;;;0.00;0.00;;;;;17.07;36.24;98977.56;5051157;28;45429;-78
2021/12/08 11:54:56;;;;;;;;;0.00;0.00;;;;;17.00;36.63;98985.13;5054037;28;45451;-77
2021/12/08 11:57:25;;;;;;;;;0.00;0.00;;;;;17.12;36.76;98988.75;5054396;28;45475;-78
2021/12/08 11:59:58;;;;;;;;;0.25;0.00;;;;;17.27;36.78;98988.63;5053725;28;45387;-77
2021/12/08 12:02:46;;;;;;;;;1.50;0.00;;;;;17.39;36.43;98983.22;5052922;28;46242;-77
2021/12/08 12:05:18;;;;;;;;;0.00;0.00;;;;;17.04;36.86;98988.47;5056216;28;45455;-77
2021/12/08 12:07:46;;;;;;;;;1.00;1.00;;;;;16.82;36.75;98994.44;5053172;28;45498;-77
2021/12/08 12:10:13;;;;;;;;;0.00;0.00;;;;;16.71;37.72;99000.53;5045360;28;45556;-78
2021/12/08 12:12:41;;;;;;;;;0.00;0.00;;;;;16.43;37.85;98999.78;5037340;28;46140;-78
2021/12/08 12:15:10;;;;;;;;;1.75;0.00;;;;;16.25;38.30;98993.06;5037399;28;45526;-76
2021/12/08 12:17:36;;;;;;;;;0.00;0.00;;;;;15.59;39.18;99003.63;5038346;28;45392;-78
2021/12/08 12:20:28;;;;;;;;;0.00;0.00;;;;;15.36;39.92;98997.97;5038298;28;45565;-76
2021/12/08 12:22:59;;;;;;;;;0.75;0.75;;;;;14.88;40.80;98997.50;5037506;28;46618;-76
2021/12/08 12:25:41;;;;;;;;;2.00;0.00;;;;;14.89;40.99;99000.06;5037105;28;45374;-76
2021/12/08 12:28:25;;;;;;;;;1.00;0.00;;;;;14.82;41.20;98998.75;5037228;28;45429;-77
2021/12/08 12:31:32;;;;;;;;;0.00;0.00;;;;;14.67;41.50;99005.88;5039544;28;45534;-77
2021/12/08 12:33:58;;;;;;;;;0.50;0.50;;;;;14.52;41.55;99004.13;5054229;28;46248;-77
2021/12/08 12:36:47;;;;;;;;;0.00;0.00;;;;;14.44;41.57;99022.31;5054947;28;45463;-77
2021/12/08 12:39:21;;;;;;;;;1.25;0.00;;;;;14.09;42.52;99031.47;5016825;28;45507;-78
2021/12/08 12:42:03;;;;;;;;;0.50;0.00;;;;;13.76;43.39;99039.59;5016010;28;45646;-78
2021/12/08 12:44:30;;;;;;;;;0.00;0.00;;;;;13.35;43.97;99035.69;5015207;28;46122;-76
2021/12/08 12:47:09;;;;;;;;;1.50;0.00;;;;;13.12;44.95;99048.38;5011320;28;45672;-77
2021/12/08 12:49:40;;;;;;;;;0.00;0.00;;;;;12.70;45.78;99054.19;5014493;28;45484;-76